sensor_id;sensor_type;location;lat;lon;timestamp;P1;durP1;ratioP1;P2;durP2;ratioP2
84723;SDS011;74944;52.322;16.918;2024-02-23T00:00:31;8.07;;;4.47;;
84723;SDS011;74944;52.322;16.918;2024-02-23T00:03:16;8.98;;;5.57;;
84723;SDS011;74944;52.322;16.918;2024-02-23T00:05:42;9.23;;;4.93;;
84723;SDS011;74944;52.322;16.918;2024-02-23T00:08:08;11.18;;;4.90;;
84723;SDS011;74944;52.322;16.918;2024-02-23T00:10:37;9.07;;;4.57;;
84723;SDS011;74944;52.322;16.918;2024-02-23T00:13:03;8.23;;;5.07;;
84723;SDS011;74944;52.322;16.918;2024-02-23T00:15:29;8.55;;;4.70;;
84723;SDS011;74944;52.322;16.918;2024-02-23T00:17:55;9.02;;;4.72;;
84723;SDS011;74944;52.322;16.918;2024-02-23T00:20:21;8.95;;;4.82;;
84723;SDS011;74944;52.322;16.918;2024-02-23T00:22:47;7.80;;;4.82;;
84723;SDS011;74944;52.322;16.918;2024-02-23T00:25:15;6.88;;;4.70;;
84723;SDS011;74944;52.322;16.918;2024-02-23T00:27:41;10.60;;;5.93;;
84723;SDS011;74944;52.322;16.918;2024-02-23T00:30:07;7.95;;;4.65;;
84723;SDS011;74944;52.322;16.918;2024-02-23T00:32:33;7.75;;;4.65;;
84723;SDS011;74944;52.322;16.918;2024-02-23T00:34:59;8.98;;;5.50;;
84723;SDS011;74944;52.322;16.918;2024-02-23T00:37:24;7.65;;;4.72;;
84723;SDS011;74944;52.322;16.918;2024-02-23T00:39:50;7.55;;;4.75;;
84723;SDS011;74944;52.322;16.918;2024-02-23T00:42:16;7.70;;;4.43;;
84723;SDS011;74944;52.322;16.918;2024-02-23T00:44:42;8.55;;;4.88;;
84723;SDS011;74944;52.322;16.918;2024-02-23T00:47:07;7.30;;;3.78;;
84723;SDS011;74944;52.322;16.918;2024-02-23T00:49:39;10.40;;;4.97;;
84723;SDS011;74944;52.322;16.918;2024-02-23T00:52:04;7.72;;;4.10;;
84723;SDS011;74944;52.322;16.918;2024-02-23T00:54:30;7.18;;;3.90;;
84723;SDS011;74944;52.322;16.918;2024-02-23T00:56:56;8.07;;;3.83;;
84723;SDS011;74944;52.322;16.918;2024-02-23T00:59:22;7.35;;;4.40;;
84723;SDS011;74944;52.322;16.918;2024-02-23T01:01:48;7.43;;;4.05;;
84723;SDS011;74944;52.322;16.918;2024-02-23T01:04:13;6.38;;;3.63;;
84723;SDS011;74944;52.322;16.918;2024-02-23T01:06:39;6.97;;;4.30;;
84723;SDS011;74944;52.322;16.918;2024-02-23T01:09:05;6.47;;;3.80;;
84723;SDS011;74944;52.322;16.918;2024-02-23T01:11:30;7.65;;;4.15;;
84723;SDS011;74944;52.322;16.918;2024-02-23T01:13:56;5.93;;;3.55;;
84723;SDS011;74944;52.322;16.918;2024-02-23T01:16:22;5.68;;;3.30;;
84723;SDS011;74944;52.322;16.918;2024-02-23T01:18:48;8.50;;;3.40;;
84723;SDS011;74944;52.322;16.918;2024-02-23T01:21:13;5.65;;;3.95;;
84723;SDS011;74944;52.322;16.918;2024-02-23T01:23:39;7.03;;;3.80;;
84723;SDS011;74944;52.322;16.918;2024-02-23T01:26:05;7.00;;;3.83;;
84723;SDS011;74944;52.322;16.918;2024-02-23T01:28:31;6.05;;;3.45;;
84723;SDS011;74944;52.322;16.918;2024-02-23T01:30:56;6.78;;;3.35;;
84723;SDS011;74944;52.322;16.918;2024-02-23T01:33:22;5.60;;;3.40;;
84723;SDS011;74944;52.322;16.918;2024-02-23T01:35:49;6.22;;;3.53;;
84723;SDS011;74944;52.322;16.918;2024-02-23T01:38:16;6.32;;;3.35;;
84723;SDS011;74944;52.322;16.918;2024-02-23T01:40:45;5.65;;;3.03;;
84723;SDS011;74944;52.322;16.918;2024-02-23T01:43:13;6.25;;;3.25;;
84723;SDS011;74944;52.322;16.918;2024-02-23T01:45:39;5.47;;;2.95;;
84723;SDS011;74944;52.322;16.918;2024-02-23T01:48:05;5.40;;;3.05;;
84723;SDS011;74944;52.322;16.918;2024-02-23T01:50:31;5.18;;;3.05;;
84723;SDS011;74944;52.322;16.918;2024-02-23T01:53:00;5.45;;;2.85;;
84723;SDS011;74944;52.322;16.918;2024-02-23T01:55:27;6.10;;;3.25;;
84723;SDS011;74944;52.322;16.918;2024-02-23T01:57:56;4.72;;;2.92;;
84723;SDS011;74944;52.322;16.918;2024-02-23T02:00:22;4.10;;;2.50;;
84723;SDS011;74944;52.322;16.918;2024-02-23T02:02:48;6.20;;;3.00;;
84723;SDS011;74944;52.322;16.918;2024-02-23T02:05:14;6.90;;;3.17;;
84723;SDS011;74944;52.322;16.918;2024-02-23T02:07:43;7.50;;;3.28;;
84723;SDS011;74944;52.322;16.918;2024-02-23T02:10:09;4.72;;;2.50;;
84723;SDS011;74944;52.322;16.918;2024-02-23T02:12:35;3.95;;;2.28;;
84723;SDS011;74944;52.322;16.918;2024-02-23T02:15:01;5.45;;;2.33;;
84723;SDS011;74944;52.322;16.918;2024-02-23T02:17:27;4.40;;;2.67;;
84723;SDS011;74944;52.322;16.918;2024-02-23T02:19:54;4.65;;;2.47;;
84723;SDS011;74944;52.322;16.918;2024-02-23T02:22:19;5.55;;;2.75;;
84723;SDS011;74944;52.322;16.918;2024-02-23T02:24:45;4.85;;;2.40;;
84723;SDS011;74944;52.322;16.918;2024-02-23T02:27:13;4.82;;;2.33;;
84723;SDS011;74944;52.322;16.918;2024-02-23T02:29:40;4.55;;;2.65;;
84723;SDS011;74944;52.322;16.918;2024-02-23T02:32:06;3.53;;;2.53;;
84723;SDS011;74944;52.322;16.918;2024-02-23T02:34:32;4.90;;;2.55;;
84723;SDS011;74944;52.322;16.918;2024-02-23T02:36:58;4.65;;;2.42;;
84723;SDS011;74944;52.322;16.918;2024-02-23T02:39:27;4.97;;;2.15;;
84723;SDS011;74944;52.322;16.918;2024-02-23T02:41:53;6.53;;;2.38;;
84723;SDS011;74944;52.322;16.918;2024-02-23T02:44:19;4.72;;;2.38;;
84723;SDS011;74944;52.322;16.918;2024-02-23T02:46:44;3.50;;;1.70;;
84723;SDS011;74944;52.322;16.918;2024-02-23T02:49:11;4.22;;;2.17;;
84723;SDS011;74944;52.322;16.918;2024-02-23T02:51:37;3.65;;;2.03;;
84723;SDS011;74944;52.322;16.918;2024-02-23T02:54:03;4.45;;;2.22;;
84723;SDS011;74944;52.322;16.918;2024-02-23T02:56:28;4.85;;;1.90;;
84723;SDS011;74944;52.322;16.918;2024-02-23T02:58:54;3.85;;;2.00;;
84723;SDS011;74944;52.322;16.918;2024-02-23T03:01:21;4.30;;;2.17;;
84723;SDS011;74944;52.322;16.918;2024-02-23T03:03:46;5.05;;;2.30;;
84723;SDS011;74944;52.322;16.918;2024-02-23T03:06:12;4.85;;;1.73;;
84723;SDS011;74944;52.322;16.918;2024-02-23T03:08:38;3.88;;;1.85;;
84723;SDS011;74944;52.322;16.918;2024-02-23T03:11:03;3.70;;;2.30;;
84723;SDS011;74944;52.322;16.918;2024-02-23T03:13:29;3.95;;;2.05;;
84723;SDS011;74944;52.322;16.918;2024-02-23T03:15:56;5.15;;;2.83;;
84723;SDS011;74944;52.322;16.918;2024-02-23T03:18:22;4.68;;;1.95;;
84723;SDS011;74944;52.322;16.918;2024-02-23T03:20:48;3.38;;;2.13;;
84723;SDS011;74944;52.322;16.918;2024-02-23T03:23:14;4.07;;;2.10;;
84723;SDS011;74944;52.322;16.918;2024-02-23T03:25:39;3.22;;;1.42;;
84723;SDS011;74944;52.322;16.918;2024-02-23T03:28:06;3.75;;;1.85;;
84723;SDS011;74944;52.322;16.918;2024-02-23T03:30:31;3.88;;;1.98;;
84723;SDS011;74944;52.322;16.918;2024-02-23T03:32:57;3.88;;;2.03;;
84723;SDS011;74944;52.322;16.918;2024-02-23T03:35:23;5.60;;;1.70;;
84723;SDS011;74944;52.322;16.918;2024-02-23T03:37:49;4.35;;;1.65;;
84723;SDS011;74944;52.322;16.918;2024-02-23T03:40:14;3.95;;;1.98;;
84723;SDS011;74944;52.322;16.918;2024-02-23T03:42:40;3.33;;;1.40;;
84723;SDS011;74944;52.322;16.918;2024-02-23T03:45:06;3.00;;;1.75;;
84723;SDS011;74944;52.322;16.918;2024-02-23T03:47:32;3.28;;;1.25;;
84723;SDS011;74944;52.322;16.918;2024-02-23T03:49:58;3.13;;;2.03;;
84723;SDS011;74944;52.322;16.918;2024-02-23T03:52:25;3.53;;;1.27;;
84723;SDS011;74944;52.322;16.918;2024-02-23T03:54:50;3.30;;;1.42;;
84723;SDS011;74944;52.322;16.918;2024-02-23T03:57:17;3.08;;;1.63;;
84723;SDS011;74944;52.322;16.918;2024-02-23T03:59:52;3.22;;;1.38;;
84723;SDS011;74944;52.322;16.918;2024-02-23T04:02:19;3.47;;;1.65;;
84723;SDS011;74944;52.322;16.918;2024-02-23T04:04:44;3.17;;;1.30;;
84723;SDS011;74944;52.322;16.918;2024-02-23T04:07:10;3.70;;;1.38;;
84723;SDS011;74944;52.322;16.918;2024-02-23T04:09:36;2.78;;;1.02;;
84723;SDS011;74944;52.322;16.918;2024-02-23T04:12:02;2.95;;;1.30;;
84723;SDS011;74944;52.322;16.918;2024-02-23T04:14:27;3.20;;;1.55;;
84723;SDS011;74944;52.322;16.918;2024-02-23T04:16:53;3.85;;;1.30;;
84723;SDS011;74944;52.322;16.918;2024-02-23T04:19:19;3.00;;;1.20;;
84723;SDS011;74944;52.322;16.918;2024-02-23T04:21:45;3.28;;;2.45;;
84723;SDS011;74944;52.322;16.918;2024-02-23T04:24:10;3.15;;;1.70;;
84723;SDS011;74944;52.322;16.918;2024-02-23T04:26:37;1.73;;;0.90;;
84723;SDS011;74944;52.322;16.918;2024-02-23T04:29:03;2.63;;;1.15;;
84723;SDS011;74944;52.322;16.918;2024-02-23T04:31:30;2.38;;;1.15;;
84723;SDS011;74944;52.322;16.918;2024-02-23T04:33:55;2.45;;;1.00;;
84723;SDS011;74944;52.322;16.918;2024-02-23T04:36:21;4.60;;;0.98;;
84723;SDS011;74944;52.322;16.918;2024-02-23T04:38:47;3.25;;;1.58;;
84723;SDS011;74944;52.322;16.918;2024-02-23T04:41:13;3.35;;;1.50;;
84723;SDS011;74944;52.322;16.918;2024-02-23T04:43:39;3.85;;;1.48;;
84723;SDS011;74944;52.322;16.918;2024-02-23T04:46:05;3.10;;;1.17;;
84723;SDS011;74944;52.322;16.918;2024-02-23T04:48:30;2.28;;;1.27;;
84723;SDS011;74944;52.322;16.918;2024-02-23T04:50:57;4.53;;;1.48;;
84723;SDS011;74944;52.322;16.918;2024-02-23T04:53:24;3.42;;;1.38;;
84723;SDS011;74944;52.322;16.918;2024-02-23T04:55:51;4.07;;;1.90;;
84723;SDS011;74944;52.322;16.918;2024-02-23T04:58:17;3.03;;;1.35;;
84723;SDS011;74944;52.322;16.918;2024-02-23T05:00:44;3.70;;;1.60;;
84723;SDS011;74944;52.322;16.918;2024-02-23T05:03:09;4.45;;;1.55;;
84723;SDS011;74944;52.322;16.918;2024-02-23T05:05:35;5.78;;;2.22;;
84723;SDS011;74944;52.322;16.918;2024-02-23T05:08:01;4.18;;;1.73;;
84723;SDS011;74944;52.322;16.918;2024-02-23T05:10:27;4.53;;;2.20;;
84723;SDS011;74944;52.322;16.918;2024-02-23T05:12:53;5.40;;;2.30;;
84723;SDS011;74944;52.322;16.918;2024-02-23T05:15:20;3.75;;;1.77;;
84723;SDS011;74944;52.322;16.918;2024-02-23T05:17:46;4.13;;;1.58;;
84723;SDS011;74944;52.322;16.918;2024-02-23T05:20:12;3.95;;;1.65;;
84723;SDS011;74944;52.322;16.918;2024-02-23T05:22:39;3.85;;;1.80;;
84723;SDS011;74944;52.322;16.918;2024-02-23T05:25:06;4.65;;;1.60;;
84723;SDS011;74944;52.322;16.918;2024-02-23T05:27:32;5.22;;;1.73;;
84723;SDS011;74944;52.322;16.918;2024-02-23T05:29:58;3.05;;;1.40;;
84723;SDS011;74944;52.322;16.918;2024-02-23T05:32:24;3.63;;;1.38;;
84723;SDS011;74944;52.322;16.918;2024-02-23T05:34:50;3.60;;;1.63;;
84723;SDS011;74944;52.322;16.918;2024-02-23T05:37:16;8.10;;;2.42;;
84723;SDS011;74944;52.322;16.918;2024-02-23T05:39:43;4.88;;;1.95;;
84723;SDS011;74944;52.322;16.918;2024-02-23T05:42:11;4.03;;;1.83;;
84723;SDS011;74944;52.322;16.918;2024-02-23T05:44:37;5.07;;;1.75;;
84723;SDS011;74944;52.322;16.918;2024-02-23T05:47:04;3.13;;;1.15;;
84723;SDS011;74944;52.322;16.918;2024-02-23T05:49:30;4.53;;;1.63;;
84723;SDS011;74944;52.322;16.918;2024-02-23T05:51:56;4.60;;;1.80;;
84723;SDS011;74944;52.322;16.918;2024-02-23T05:54:22;4.53;;;1.73;;
84723;SDS011;74944;52.322;16.918;2024-02-23T05:56:48;3.50;;;1.55;;
84723;SDS011;74944;52.322;16.918;2024-02-23T05:59:15;3.38;;;1.33;;
84723;SDS011;74944;52.322;16.918;2024-02-23T06:01:40;3.58;;;2.20;;
84723;SDS011;74944;52.322;16.918;2024-02-23T06:04:06;3.22;;;1.70;;
84723;SDS011;74944;52.322;16.918;2024-02-23T06:06:32;3.35;;;1.63;;
84723;SDS011;74944;52.322;16.918;2024-02-23T06:08:58;5.65;;;2.10;;
84723;SDS011;74944;52.322;16.918;2024-02-23T06:11:23;3.83;;;1.65;;
84723;SDS011;74944;52.322;16.918;2024-02-23T06:13:49;4.90;;;1.92;;
84723;SDS011;74944;52.322;16.918;2024-02-23T06:16:15;5.13;;;2.25;;
84723;SDS011;74944;52.322;16.918;2024-02-23T06:18:41;3.40;;;1.92;;
84723;SDS011;74944;52.322;16.918;2024-02-23T06:21:16;3.78;;;1.30;;
84723;SDS011;74944;52.322;16.918;2024-02-23T06:23:43;3.50;;;1.20;;
84723;SDS011;74944;52.322;16.918;2024-02-23T06:26:09;3.20;;;1.38;;
84723;SDS011;74944;52.322;16.918;2024-02-23T06:28:36;3.83;;;1.60;;
84723;SDS011;74944;52.322;16.918;2024-02-23T06:31:07;3.33;;;1.13;;
84723;SDS011;74944;52.322;16.918;2024-02-23T06:33:33;2.78;;;1.30;;
84723;SDS011;74944;52.322;16.918;2024-02-23T06:35:59;2.63;;;1.13;;
84723;SDS011;74944;52.322;16.918;2024-02-23T06:38:25;1.73;;;1.00;;
84723;SDS011;74944;52.322;16.918;2024-02-23T06:40:51;2.15;;;0.80;;
84723;SDS011;74944;52.322;16.918;2024-02-23T06:43:17;2.42;;;1.23;;
84723;SDS011;74944;52.322;16.918;2024-02-23T06:45:43;3.55;;;1.13;;
84723;SDS011;74944;52.322;16.918;2024-02-23T06:48:10;3.75;;;1.15;;
84723;SDS011;74944;52.322;16.918;2024-02-23T06:50:36;3.47;;;1.13;;
84723;SDS011;74944;52.322;16.918;2024-02-23T06:53:02;3.35;;;0.90;;
84723;SDS011;74944;52.322;16.918;2024-02-23T06:55:28;2.55;;;1.38;;
84723;SDS011;74944;52.322;16.918;2024-02-23T06:57:56;2.67;;;1.05;;
84723;SDS011;74944;52.322;16.918;2024-02-23T07:00:23;1.73;;;0.98;;
84723;SDS011;74944;52.322;16.918;2024-02-23T07:02:50;2.30;;;0.80;;
84723;SDS011;74944;52.322;16.918;2024-02-23T07:05:16;5.10;;;1.13;;
84723;SDS011;74944;52.322;16.918;2024-02-23T07:07:44;2.83;;;0.68;;
84723;SDS011;74944;52.322;16.918;2024-02-23T07:10:11;2.97;;;0.90;;
84723;SDS011;74944;52.322;16.918;2024-02-23T07:12:37;1.80;;;0.85;;
84723;SDS011;74944;52.322;16.918;2024-02-23T07:15:05;2.03;;;0.82;;
84723;SDS011;74944;52.322;16.918;2024-02-23T07:17:31;2.65;;;0.80;;
84723;SDS011;74944;52.322;16.918;2024-02-23T07:19:57;1.70;;;0.90;;
84723;SDS011;74944;52.322;16.918;2024-02-23T07:22:34;1.88;;;0.65;;
84723;SDS011;74944;52.322;16.918;2024-02-23T07:24:59;2.08;;;1.38;;
84723;SDS011;74944;52.322;16.918;2024-02-23T07:27:28;3.00;;;0.80;;
84723;SDS011;74944;52.322;16.918;2024-02-23T07:29:54;2.78;;;1.35;;
84723;SDS011;74944;52.322;16.918;2024-02-23T07:32:22;2.45;;;0.70;;
84723;SDS011;74944;52.322;16.918;2024-02-23T07:34:47;2.47;;;0.70;;
84723;SDS011;74944;52.322;16.918;2024-02-23T07:37:17;2.03;;;0.85;;
84723;SDS011;74944;52.322;16.918;2024-02-23T07:39:44;2.63;;;0.73;;
84723;SDS011;74944;52.322;16.918;2024-02-23T07:42:10;1.80;;;0.73;;
84723;SDS011;74944;52.322;16.918;2024-02-23T07:44:36;1.90;;;0.75;;
84723;SDS011;74944;52.322;16.918;2024-02-23T07:47:03;1.48;;;0.65;;
84723;SDS011;74944;52.322;16.918;2024-02-23T07:49:28;1.23;;;0.50;;
84723;SDS011;74944;52.322;16.918;2024-02-23T07:51:54;3.63;;;0.70;;
84723;SDS011;74944;52.322;16.918;2024-02-23T07:54:20;1.83;;;1.10;;
84723;SDS011;74944;52.322;16.918;2024-02-23T07:56:46;2.05;;;0.80;;
84723;SDS011;74944;52.322;16.918;2024-02-23T07:59:12;2.22;;;0.70;;
84723;SDS011;74944;52.322;16.918;2024-02-23T08:01:38;2.33;;;1.08;;
84723;SDS011;74944;52.322;16.918;2024-02-23T08:04:05;2.70;;;1.45;;
84723;SDS011;74944;52.322;16.918;2024-02-23T08:06:31;2.40;;;0.95;;
84723;SDS011;74944;52.322;16.918;2024-02-23T08:08:57;3.17;;;0.80;;
84723;SDS011;74944;52.322;16.918;2024-02-23T08:11:22;3.50;;;1.20;;
84723;SDS011;74944;52.322;16.918;2024-02-23T08:13:48;3.83;;;0.80;;
84723;SDS011;74944;52.322;16.918;2024-02-23T08:16:16;1.80;;;0.80;;
84723;SDS011;74944;52.322;16.918;2024-02-23T08:18:43;2.53;;;1.10;;
84723;SDS011;74944;52.322;16.918;2024-02-23T08:21:09;2.67;;;1.05;;
84723;SDS011;74944;52.322;16.918;2024-02-23T08:23:36;4.00;;;1.15;;
84723;SDS011;74944;52.322;16.918;2024-02-23T08:26:02;2.15;;;1.00;;
84723;SDS011;74944;52.322;16.918;2024-02-23T08:28:28;5.38;;;1.20;;
84723;SDS011;74944;52.322;16.918;2024-02-23T08:30:57;3.53;;;0.93;;
84723;SDS011;74944;52.322;16.918;2024-02-23T08:33:22;2.17;;;0.82;;
84723;SDS011;74944;52.322;16.918;2024-02-23T08:35:50;3.25;;;0.82;;
84723;SDS011;74944;52.322;16.918;2024-02-23T08:38:15;3.47;;;0.60;;
84723;SDS011;74944;52.322;16.918;2024-02-23T08:40:41;2.47;;;0.77;;
84723;SDS011;74944;52.322;16.918;2024-02-23T08:43:07;4.20;;;1.15;;
84723;SDS011;74944;52.322;16.918;2024-02-23T08:45:33;3.40;;;0.70;;
84723;SDS011;74944;52.322;16.918;2024-02-23T08:47:58;3.35;;;1.33;;
84723;SDS011;74944;52.322;16.918;2024-02-23T08:50:24;2.20;;;0.65;;
84723;SDS011;74944;52.322;16.918;2024-02-23T08:52:51;2.28;;;0.80;;
84723;SDS011;74944;52.322;16.918;2024-02-23T08:55:17;2.40;;;0.85;;
84723;SDS011;74944;52.322;16.918;2024-02-23T08:57:43;1.65;;;0.80;;
84723;SDS011;74944;52.322;16.918;2024-02-23T09:00:09;7.53;;;0.55;;
84723;SDS011;74944;52.322;16.918;2024-02-23T09:02:35;2.13;;;1.02;;
84723;SDS011;74944;52.322;16.918;2024-02-23T09:05:03;2.42;;;0.68;;
84723;SDS011;74944;52.322;16.918;2024-02-23T09:07:29;4.22;;;1.00;;
84723;SDS011;74944;52.322;16.918;2024-02-23T09:09:55;1.52;;;0.80;;
84723;SDS011;74944;52.322;16.918;2024-02-23T09:12:22;2.85;;;0.77;;
84723;SDS011;74944;52.322;16.918;2024-02-23T09:14:48;2.05;;;0.60;;
84723;SDS011;74944;52.322;16.918;2024-02-23T09:17:13;2.47;;;0.80;;
84723;SDS011;74944;52.322;16.918;2024-02-23T09:19:39;2.22;;;0.60;;
84723;SDS011;74944;52.322;16.918;2024-02-23T09:22:05;2.17;;;0.75;;
84723;SDS011;74944;52.322;16.918;2024-02-23T09:24:31;1.88;;;0.90;;
84723;SDS011;74944;52.322;16.918;2024-02-23T09:26:56;1.65;;;0.70;;
84723;SDS011;74944;52.322;16.918;2024-02-23T09:29:22;2.38;;;0.90;;
84723;SDS011;74944;52.322;16.918;2024-02-23T09:31:48;3.15;;;0.88;;
84723;SDS011;74944;52.322;16.918;2024-02-23T09:34:14;1.95;;;1.00;;
84723;SDS011;74944;52.322;16.918;2024-02-23T09:36:40;3.03;;;1.60;;
84723;SDS011;74944;52.322;16.918;2024-02-23T09:39:06;1.38;;;0.57;;
84723;SDS011;74944;52.322;16.918;2024-02-23T09:41:32;2.20;;;0.70;;
84723;SDS011;74944;52.322;16.918;2024-02-23T09:44:01;2.45;;;0.85;;
84723;SDS011;74944;52.322;16.918;2024-02-23T09:46:27;3.13;;;0.70;;
84723;SDS011;74944;52.322;16.918;2024-02-23T09:48:53;2.33;;;0.90;;
84723;SDS011;74944;52.322;16.918;2024-02-23T09:51:20;3.25;;;0.80;;
84723;SDS011;74944;52.322;16.918;2024-02-23T09:53:49;2.83;;;0.93;;
84723;SDS011;74944;52.322;16.918;2024-02-23T09:56:17;2.55;;;0.90;;
84723;SDS011;74944;52.322;16.918;2024-02-23T09:58:45;1.63;;;0.75;;
84723;SDS011;74944;52.322;16.918;2024-02-23T10:01:12;2.40;;;0.90;;
84723;SDS011;74944;52.322;16.918;2024-02-23T10:03:47;1.90;;;0.70;;
84723;SDS011;74944;52.322;16.918;2024-02-23T10:06:13;2.15;;;0.80;;
84723;SDS011;74944;52.322;16.918;2024-02-23T10:08:39;2.10;;;0.60;;
84723;SDS011;74944;52.322;16.918;2024-02-23T10:11:04;2.53;;;1.10;;
84723;SDS011;74944;52.322;16.918;2024-02-23T10:13:30;2.50;;;0.93;;
84723;SDS011;74944;52.322;16.918;2024-02-23T10:15:56;3.28;;;1.10;;
84723;SDS011;74944;52.322;16.918;2024-02-23T10:18:22;6.03;;;1.55;;
84723;SDS011;74944;52.322;16.918;2024-02-23T10:20:48;4.78;;;1.83;;
84723;SDS011;74944;52.322;16.918;2024-02-23T10:23:15;4.43;;;1.00;;
84723;SDS011;74944;52.322;16.918;2024-02-23T10:25:41;2.97;;;1.02;;
84723;SDS011;74944;52.322;16.918;2024-02-23T10:28:07;2.17;;;0.63;;
84723;SDS011;74944;52.322;16.918;2024-02-23T10:30:36;2.63;;;0.80;;
84723;SDS011;74944;52.322;16.918;2024-02-23T10:33:02;1.95;;;0.77;;
84723;SDS011;74944;52.322;16.918;2024-02-23T10:35:30;2.17;;;0.73;;
84723;SDS011;74944;52.322;16.918;2024-02-23T10:37:57;3.03;;;0.70;;
84723;SDS011;74944;52.322;16.918;2024-02-23T10:40:24;2.53;;;0.73;;
84723;SDS011;74944;52.322;16.918;2024-02-23T10:42:52;1.52;;;0.70;;
84723;SDS011;74944;52.322;16.918;2024-02-23T10:45:21;2.20;;;1.23;;
84723;SDS011;74944;52.322;16.918;2024-02-23T10:47:48;1.38;;;0.77;;
84723;SDS011;74944;52.322;16.918;2024-02-23T10:50:15;4.47;;;0.95;;
84723;SDS011;74944;52.322;16.918;2024-02-23T10:52:45;2.45;;;0.57;;
84723;SDS011;74944;52.322;16.918;2024-02-23T10:55:12;3.10;;;0.70;;
84723;SDS011;74944;52.322;16.918;2024-02-23T10:57:38;1.35;;;0.50;;
84723;SDS011;74944;52.322;16.918;2024-02-23T11:00:07;1.63;;;0.68;;
84723;SDS011;74944;52.322;16.918;2024-02-23T11:02:39;2.58;;;1.20;;
84723;SDS011;74944;52.322;16.918;2024-02-23T11:05:08;2.85;;;1.35;;
84723;SDS011;74944;52.322;16.918;2024-02-23T11:07:38;3.00;;;0.68;;
84723;SDS011;74944;52.322;16.918;2024-02-23T11:10:05;2.88;;;0.60;;
84723;SDS011;74944;52.322;16.918;2024-02-23T11:12:31;2.67;;;1.05;;
84723;SDS011;74944;52.322;16.918;2024-02-23T11:14:59;4.15;;;1.23;;
84723;SDS011;74944;52.322;16.918;2024-02-23T11:17:27;2.17;;;0.93;;
84723;SDS011;74944;52.322;16.918;2024-02-23T11:19:55;6.50;;;1.60;;
84723;SDS011;74944;52.322;16.918;2024-02-23T11:22:34;7.93;;;2.00;;
84723;SDS011;74944;52.322;16.918;2024-02-23T11:25:05;4.20;;;0.80;;
84723;SDS011;74944;52.322;16.918;2024-02-23T11:27:35;4.22;;;1.52;;
84723;SDS011;74944;52.322;16.918;2024-02-23T11:30:06;2.20;;;0.77;;
84723;SDS011;74944;52.322;16.918;2024-02-23T11:35:08;3.30;;;0.70;;
84723;SDS011;74944;52.322;16.918;2024-02-23T11:37:45;3.20;;;0.73;;
84723;SDS011;74944;52.322;16.918;2024-02-23T11:40:15;3.50;;;0.73;;
84723;SDS011;74944;52.322;16.918;2024-02-23T11:42:43;2.08;;;0.60;;
84723;SDS011;74944;52.322;16.918;2024-02-23T11:45:09;1.23;;;0.60;;
84723;SDS011;74944;52.322;16.918;2024-02-23T11:47:36;4.18;;;0.60;;
84723;SDS011;74944;52.322;16.918;2024-02-23T11:50:03;1.92;;;0.70;;
84723;SDS011;74944;52.322;16.918;2024-02-23T11:52:32;2.22;;;1.17;;
84723;SDS011;74944;52.322;16.918;2024-02-23T11:54:58;2.08;;;0.73;;
84723;SDS011;74944;52.322;16.918;2024-02-23T11:57:24;2.70;;;0.60;;
84723;SDS011;74944;52.322;16.918;2024-02-23T11:59:51;1.88;;;0.63;;
84723;SDS011;74944;52.322;16.918;2024-02-23T12:02:17;1.38;;;0.63;;
84723;SDS011;74944;52.322;16.918;2024-02-23T12:04:43;2.58;;;0.68;;
84723;SDS011;74944;52.322;16.918;2024-02-23T12:07:09;2.17;;;1.48;;
84723;SDS011;74944;52.322;16.918;2024-02-23T12:09:35;3.47;;;1.02;;
84723;SDS011;74944;52.322;16.918;2024-02-23T12:12:01;1.52;;;0.68;;
84723;SDS011;74944;52.322;16.918;2024-02-23T12:14:27;4.30;;;1.83;;
84723;SDS011;74944;52.322;16.918;2024-02-23T12:16:53;4.78;;;1.52;;
84723;SDS011;74944;52.322;16.918;2024-02-23T12:19:19;5.22;;;1.50;;
84723;SDS011;74944;52.322;16.918;2024-02-23T12:21:45;2.97;;;0.80;;
84723;SDS011;74944;52.322;16.918;2024-02-23T12:24:11;2.60;;;1.00;;
84723;SDS011;74944;52.322;16.918;2024-02-23T12:26:38;2.92;;;0.60;;
84723;SDS011;74944;52.322;16.918;2024-02-23T12:29:04;2.25;;;0.57;;
84723;SDS011;74944;52.322;16.918;2024-02-23T12:31:32;2.20;;;0.85;;
84723;SDS011;74944;52.322;16.918;2024-02-23T12:33:58;3.08;;;0.98;;
84723;SDS011;74944;52.322;16.918;2024-02-23T12:36:24;3.78;;;1.10;;
84723;SDS011;74944;52.322;16.918;2024-02-23T12:38:50;1.95;;;0.90;;
84723;SDS011;74944;52.322;16.918;2024-02-23T12:41:15;2.45;;;1.20;;
84723;SDS011;74944;52.322;16.918;2024-02-23T12:43:41;4.18;;;1.10;;
84723;SDS011;74944;52.322;16.918;2024-02-23T12:46:07;5.88;;;2.00;;
84723;SDS011;74944;52.322;16.918;2024-02-23T12:48:34;3.78;;;1.25;;
84723;SDS011;74944;52.322;16.918;2024-02-23T12:51:00;3.40;;;1.63;;
84723;SDS011;74944;52.322;16.918;2024-02-23T12:53:34;3.05;;;1.33;;
84723;SDS011;74944;52.322;16.918;2024-02-23T12:56:07;4.45;;;1.65;;
84723;SDS011;74944;52.322;16.918;2024-02-23T12:58:35;4.32;;;1.10;;
84723;SDS011;74944;52.322;16.918;2024-02-23T13:01:01;3.78;;;0.80;;
84723;SDS011;74944;52.322;16.918;2024-02-23T13:03:27;2.13;;;0.80;;
84723;SDS011;74944;52.322;16.918;2024-02-23T13:05:57;2.40;;;0.75;;
84723;SDS011;74944;52.322;16.918;2024-02-23T13:08:23;3.33;;;0.93;;
84723;SDS011;74944;52.322;16.918;2024-02-23T13:10:51;3.22;;;1.25;;
84723;SDS011;74944;52.322;16.918;2024-02-23T13:13:18;2.90;;;1.30;;
84723;SDS011;74944;52.322;16.918;2024-02-23T13:15:45;2.78;;;1.00;;
84723;SDS011;74944;52.322;16.918;2024-02-23T13:18:12;4.20;;;1.10;;
84723;SDS011;74944;52.322;16.918;2024-02-23T13:20:38;4.43;;;1.00;;
84723;SDS011;74944;52.322;16.918;2024-02-23T13:23:04;3.42;;;1.20;;
84723;SDS011;74944;52.322;16.918;2024-02-23T13:25:36;4.28;;;1.40;;
84723;SDS011;74944;52.322;16.918;2024-02-23T13:28:03;5.35;;;1.55;;
84723;SDS011;74944;52.322;16.918;2024-02-23T13:30:30;3.40;;;1.70;;
84723;SDS011;74944;52.322;16.918;2024-02-23T13:32:56;3.22;;;1.35;;
84723;SDS011;74944;52.322;16.918;2024-02-23T13:35:23;3.85;;;1.73;;
84723;SDS011;74944;52.322;16.918;2024-02-23T13:37:48;5.88;;;2.15;;
84723;SDS011;74944;52.322;16.918;2024-02-23T13:40:14;3.35;;;1.30;;
84723;SDS011;74944;52.322;16.918;2024-02-23T13:42:40;4.15;;;1.38;;
84723;SDS011;74944;52.322;16.918;2024-02-23T13:45:07;3.08;;;1.23;;
84723;SDS011;74944;52.322;16.918;2024-02-23T13:47:34;3.67;;;1.70;;
84723;SDS011;74944;52.322;16.918;2024-02-23T13:50:01;3.40;;;1.30;;
84723;SDS011;74944;52.322;16.918;2024-02-23T13:52:27;3.97;;;1.30;;
84723;SDS011;74944;52.322;16.918;2024-02-23T13:54:54;6.07;;;1.92;;
84723;SDS011;74944;52.322;16.918;2024-02-23T13:57:20;5.18;;;2.15;;
84723;SDS011;74944;52.322;16.918;2024-02-23T13:59:46;4.22;;;1.58;;
84723;SDS011;74944;52.322;16.918;2024-02-23T14:02:11;5.43;;;1.88;;
84723;SDS011;74944;52.322;16.918;2024-02-23T14:04:37;5.20;;;1.60;;
84723;SDS011;74944;52.322;16.918;2024-02-23T14:07:03;4.45;;;1.60;;
84723;SDS011;74944;52.322;16.918;2024-02-23T14:09:30;4.18;;;1.42;;
84723;SDS011;74944;52.322;16.918;2024-02-23T14:11:56;5.47;;;1.42;;
84723;SDS011;74944;52.322;16.918;2024-02-23T14:14:22;3.70;;;1.40;;
84723;SDS011;74944;52.322;16.918;2024-02-23T14:16:49;3.15;;;1.10;;
84723;SDS011;74944;52.322;16.918;2024-02-23T14:19:15;3.20;;;1.15;;
84723;SDS011;74944;52.322;16.918;2024-02-23T14:21:40;3.78;;;1.20;;
84723;SDS011;74944;52.322;16.918;2024-02-23T14:24:06;4.13;;;1.10;;
84723;SDS011;74944;52.322;16.918;2024-02-23T14:26:32;2.72;;;1.10;;
84723;SDS011;74944;52.322;16.918;2024-02-23T14:28:58;3.13;;;1.30;;
84723;SDS011;74944;52.322;16.918;2024-02-23T14:31:24;3.17;;;1.20;;